sensor_id;sensor_type;location;lat;lon;timestamp;P1;durP1;ratioP1;P2;durP2;ratioP2
79204;SDS011;68632;47.512;19.104;2023-07-02T00:00:52;18.73;;;12.85;;
79204;SDS011;68632;47.512;19.104;2023-07-02T00:01:56;17.10;;;12.32;;
79204;SDS011;68632;47.512;19.104;2023-07-02T00:04:02;15.50;;;12.35;;
79204;SDS011;68632;47.512;19.104;2023-07-02T00:05:05;17.85;;;13.20;;
79204;SDS011;68632;47.512;19.104;2023-07-02T00:06:08;19.27;;;13.30;;
79204;SDS011;68632;47.512;19.104;2023-07-02T00:07:10;18.00;;;12.95;;
79204;SDS011;68632;47.512;19.104;2023-07-02T00:08:13;17.85;;;13.52;;
79204;SDS011;68632;47.512;19.104;2023-07-02T00:09:15;15.57;;;12.55;;
79204;SDS011;68632;47.512;19.104;2023-07-02T00:10:17;19.80;;;13.35;;
79204;SDS011;68632;47.512;19.104;2023-07-02T00:11:20;20.25;;;12.30;;
79204;SDS011;68632;47.512;19.104;2023-07-02T00:12:22;19.90;;;13.10;;
79204;SDS011;68632;47.512;19.104;2023-07-02T00:13:24;18.27;;;13.27;;
79204;SDS011;68632;47.512;19.104;2023-07-02T00:14:26;16.35;;;12.45;;
79204;SDS011;68632;47.512;19.104;2023-07-02T00:15:28;17.70;;;12.45;;
79204;SDS011;68632;47.512;19.104;2023-07-02T00:16:30;16.75;;;12.43;;
79204;SDS011;68632;47.512;19.104;2023-07-02T00:17:32;18.27;;;12.68;;
79204;SDS011;68632;47.512;19.104;2023-07-02T00:18:35;16.52;;;12.80;;
79204;SDS011;68632;47.512;19.104;2023-07-02T00:19:37;18.08;;;12.70;;
79204;SDS011;68632;47.512;19.104;2023-07-02T00:20:43;18.20;;;13.02;;
79204;SDS011;68632;47.512;19.104;2023-07-02T00:21:46;17.80;;;12.63;;
79204;SDS011;68632;47.512;19.104;2023-07-02T00:22:48;17.90;;;12.48;;
79204;SDS011;68632;47.512;19.104;2023-07-02T00:23:51;16.83;;;12.77;;
79204;SDS011;68632;47.512;19.104;2023-07-02T00:24:53;17.27;;;12.00;;
79204;SDS011;68632;47.512;19.104;2023-07-02T00:26:59;15.88;;;11.77;;
79204;SDS011;68632;47.512;19.104;2023-07-02T00:28:02;16.73;;;13.23;;
79204;SDS011;68632;47.512;19.104;2023-07-02T00:29:04;17.25;;;12.48;;
79204;SDS011;68632;47.512;19.104;2023-07-02T00:30:08;18.15;;;12.10;;
79204;SDS011;68632;47.512;19.104;2023-07-02T00:31:10;16.83;;;11.90;;
79204;SDS011;68632;47.512;19.104;2023-07-02T00:32:13;16.55;;;12.27;;
79204;SDS011;68632;47.512;19.104;2023-07-02T00:33:15;18.08;;;11.90;;
79204;SDS011;68632;47.512;19.104;2023-07-02T00:34:17;16.23;;;11.85;;
79204;SDS011;68632;47.512;19.104;2023-07-02T00:35:20;17.48;;;12.48;;
79204;SDS011;68632;47.512;19.104;2023-07-02T00:36:22;16.85;;;12.55;;
79204;SDS011;68632;47.512;19.104;2023-07-02T00:37:24;16.75;;;11.77;;
79204;SDS011;68632;47.512;19.104;2023-07-02T00:38:26;16.25;;;12.20;;
79204;SDS011;68632;47.512;19.104;2023-07-02T00:39:28;17.17;;;11.57;;
79204;SDS011;68632;47.512;19.104;2023-07-02T00:40:31;17.75;;;11.88;;
79204;SDS011;68632;47.512;19.104;2023-07-02T00:41:33;18.05;;;12.73;;
79204;SDS011;68632;47.512;19.104;2023-07-02T00:42:35;16.50;;;12.05;;
79204;SDS011;68632;47.512;19.104;2023-07-02T00:43:37;18.13;;;13.00;;
79204;SDS011;68632;47.512;19.104;2023-07-02T00:44:45;17.33;;;12.40;;
79204;SDS011;68632;47.512;19.104;2023-07-02T00:45:47;16.13;;;11.48;;
79204;SDS011;68632;47.512;19.104;2023-07-02T00:46:50;15.60;;;12.00;;
79204;SDS011;68632;47.512;19.104;2023-07-02T00:47:54;17.13;;;11.70;;
79204;SDS011;68632;47.512;19.104;2023-07-02T00:48:56;19.25;;;11.82;;
79204;SDS011;68632;47.512;19.104;2023-07-02T00:49:59;16.02;;;11.43;;
79204;SDS011;68632;47.512;19.104;2023-07-02T00:51:01;16.38;;;12.30;;
79204;SDS011;68632;47.512;19.104;2023-07-02T00:52:03;17.88;;;11.77;;
79204;SDS011;68632;47.512;19.104;2023-07-02T00:53:06;20.17;;;11.90;;
79204;SDS011;68632;47.512;19.104;2023-07-02T00:54:08;17.60;;;11.40;;
79204;SDS011;68632;47.512;19.104;2023-07-02T00:55:10;18.30;;;11.77;;
79204;SDS011;68632;47.512;19.104;2023-07-02T00:56:13;17.80;;;11.20;;
79204;SDS011;68632;47.512;19.104;2023-07-02T00:57:15;15.80;;;11.85;;
79204;SDS011;68632;47.512;19.104;2023-07-02T00:58:17;17.05;;;11.77;;
79204;SDS011;68632;47.512;19.104;2023-07-02T00:59:22;17.45;;;11.90;;
79204;SDS011;68632;47.512;19.104;2023-07-02T01:00:25;15.50;;;12.40;;
79204;SDS011;68632;47.512;19.104;2023-07-02T01:01:27;16.15;;;11.77;;
79204;SDS011;68632;47.512;19.104;2023-07-02T01:02:30;16.55;;;11.35;;
79204;SDS011;68632;47.512;19.104;2023-07-02T01:03:32;16.15;;;11.60;;
79204;SDS011;68632;47.512;19.104;2023-07-02T01:04:34;16.65;;;11.65;;
79204;SDS011;68632;47.512;19.104;2023-07-02T01:05:37;17.00;;;11.25;;
79204;SDS011;68632;47.512;19.104;2023-07-02T01:06:39;16.60;;;10.85;;
79204;SDS011;68632;47.512;19.104;2023-07-02T01:07:43;16.42;;;11.85;;
79204;SDS011;68632;47.512;19.104;2023-07-02T01:08:47;15.68;;;11.80;;
79204;SDS011;68632;47.512;19.104;2023-07-02T01:09:49;17.08;;;11.50;;
79204;SDS011;68632;47.512;19.104;2023-07-02T01:10:52;15.98;;;11.90;;
79204;SDS011;68632;47.512;19.104;2023-07-02T01:11:58;16.55;;;11.55;;
79204;SDS011;68632;47.512;19.104;2023-07-02T01:13:03;14.85;;;11.23;;
79204;SDS011;68632;47.512;19.104;2023-07-02T01:14:11;16.05;;;11.23;;
79204;SDS011;68632;47.512;19.104;2023-07-02T01:15:13;16.45;;;11.25;;
79204;SDS011;68632;47.512;19.104;2023-07-02T01:16:15;14.23;;;10.73;;
79204;SDS011;68632;47.512;19.104;2023-07-02T01:17:18;17.85;;;11.10;;
79204;SDS011;68632;47.512;19.104;2023-07-02T01:18:21;16.05;;;11.98;;
79204;SDS011;68632;47.512;19.104;2023-07-02T01:20:34;13.45;;;10.15;;
79204;SDS011;68632;47.512;19.104;2023-07-02T01:21:36;14.20;;;10.88;;
79204;SDS011;68632;47.512;19.104;2023-07-02T01:22:39;15.30;;;11.45;;
79204;SDS011;68632;47.512;19.104;2023-07-02T01:23:41;17.65;;;11.45;;
79204;SDS011;68632;47.512;19.104;2023-07-02T01:24:44;13.32;;;10.63;;
79204;SDS011;68632;47.512;19.104;2023-07-02T01:25:51;13.48;;;10.20;;
79204;SDS011;68632;47.512;19.104;2023-07-02T01:26:53;17.67;;;12.60;;
79204;SDS011;68632;47.512;19.104;2023-07-02T01:27:58;17.45;;;11.48;;
79204;SDS011;68632;47.512;19.104;2023-07-02T01:29:13;15.93;;;11.15;;
79204;SDS011;68632;47.512;19.104;2023-07-02T01:30:18;19.38;;;14.65;;
79204;SDS011;68632;47.512;19.104;2023-07-02T01:31:20;15.27;;;10.27;;
79204;SDS011;68632;47.512;19.104;2023-07-02T01:32:27;15.63;;;10.57;;
79204;SDS011;68632;47.512;19.104;2023-07-02T01:33:30;17.05;;;10.18;;
79204;SDS011;68632;47.512;19.104;2023-07-02T01:34:32;15.55;;;11.45;;
79204;SDS011;68632;47.512;19.104;2023-07-02T01:35:34;13.07;;;9.88;;
79204;SDS011;68632;47.512;19.104;2023-07-02T01:36:37;13.07;;;10.43;;
79204;SDS011;68632;47.512;19.104;2023-07-02T01:37:39;12.90;;;9.63;;
79204;SDS011;68632;47.512;19.104;2023-07-02T01:38:41;14.90;;;9.85;;
79204;SDS011;68632;47.512;19.104;2023-07-02T01:39:43;13.27;;;10.35;;
79204;SDS011;68632;47.512;19.104;2023-07-02T01:40:46;16.40;;;10.82;;
79204;SDS011;68632;47.512;19.104;2023-07-02T01:41:50;13.98;;;9.45;;
79204;SDS011;68632;47.512;19.104;2023-07-02T01:42:53;14.65;;;10.85;;
79204;SDS011;68632;47.512;19.104;2023-07-02T01:43:55;14.18;;;9.50;;
79204;SDS011;68632;47.512;19.104;2023-07-02T01:44:57;14.88;;;9.68;;
79204;SDS011;68632;47.512;19.104;2023-07-02T01:46:00;15.20;;;10.55;;
79204;SDS011;68632;47.512;19.104;2023-07-02T01:47:03;14.68;;;10.13;;
79204;SDS011;68632;47.512;19.104;2023-07-02T01:48:06;15.98;;;9.90;;
79204;SDS011;68632;47.512;19.104;2023-07-02T01:49:08;13.85;;;9.65;;
79204;SDS011;68632;47.512;19.104;2023-07-02T01:50:10;13.45;;;9.65;;
79204;SDS011;68632;47.512;19.104;2023-07-02T01:51:12;14.68;;;9.88;;
79204;SDS011;68632;47.512;19.104;2023-07-02T01:52:15;13.98;;;9.27;;
79204;SDS011;68632;47.512;19.104;2023-07-02T01:53:18;13.40;;;9.65;;
79204;SDS011;68632;47.512;19.104;2023-07-02T01:54:21;15.50;;;9.73;;
79204;SDS011;68632;47.512;19.104;2023-07-02T01:55:24;15.48;;;9.57;;
79204;SDS011;68632;47.512;19.104;2023-07-02T01:56:26;12.73;;;9.30;;
79204;SDS011;68632;47.512;19.104;2023-07-02T01:57:28;12.82;;;9.30;;
79204;SDS011;68632;47.512;19.104;2023-07-02T01:58:32;12.77;;;9.05;;
79204;SDS011;68632;47.512;19.104;2023-07-02T01:59:34;15.20;;;9.73;;
79204;SDS011;68632;47.512;19.104;2023-07-02T02:00:36;11.85;;;8.70;;
79204;SDS011;68632;47.512;19.104;2023-07-02T02:01:38;15.48;;;9.52;;
79204;SDS011;68632;47.512;19.104;2023-07-02T02:02:44;12.80;;;9.40;;
79204;SDS011;68632;47.512;19.104;2023-07-02T02:03:46;15.57;;;10.15;;
79204;SDS011;68632;47.512;19.104;2023-07-02T02:04:48;15.35;;;10.18;;
79204;SDS011;68632;47.512;19.104;2023-07-02T02:05:51;13.35;;;9.48;;
79204;SDS011;68632;47.512;19.104;2023-07-02T02:06:53;14.05;;;9.18;;
79204;SDS011;68632;47.512;19.104;2023-07-02T02:07:55;14.88;;;9.18;;
79204;SDS011;68632;47.512;19.104;2023-07-02T02:08:57;13.70;;;9.75;;
79204;SDS011;68632;47.512;19.104;2023-07-02T02:10:00;12.82;;;9.38;;
79204;SDS011;68632;47.512;19.104;2023-07-02T02:11:02;16.15;;;9.77;;
79204;SDS011;68632;47.512;19.104;2023-07-02T02:12:04;13.02;;;9.50;;
79204;SDS011;68632;47.512;19.104;2023-07-02T02:13:06;12.93;;;10.07;;
79204;SDS011;68632;47.512;19.104;2023-07-02T02:14:08;14.55;;;9.73;;
79204;SDS011;68632;47.512;19.104;2023-07-02T02:15:11;14.65;;;9.68;;
79204;SDS011;68632;47.512;19.104;2023-07-02T02:16:15;16.10;;;10.18;;
79204;SDS011;68632;47.512;19.104;2023-07-02T02:17:18;11.85;;;8.57;;
79204;SDS011;68632;47.512;19.104;2023-07-02T02:18:20;12.45;;;9.35;;
79204;SDS011;68632;47.512;19.104;2023-07-02T02:19:22;12.75;;;9.18;;
79204;SDS011;68632;47.512;19.104;2023-07-02T02:20:24;15.68;;;10.27;;
79204;SDS011;68632;47.512;19.104;2023-07-02T02:21:26;16.55;;;10.80;;
79204;SDS011;68632;47.512;19.104;2023-07-02T02:22:29;15.15;;;9.82;;
79204;SDS011;68632;47.512;19.104;2023-07-02T02:23:31;14.10;;;10.05;;
79204;SDS011;68632;47.512;19.104;2023-07-02T02:24:33;13.15;;;9.88;;
79204;SDS011;68632;47.512;19.104;2023-07-02T02:25:35;16.23;;;10.07;;
79204;SDS011;68632;47.512;19.104;2023-07-02T02:26:37;15.77;;;10.70;;
79204;SDS011;68632;47.512;19.104;2023-07-02T02:27:40;12.50;;;9.65;;
79204;SDS011;68632;47.512;19.104;2023-07-02T02:28:42;16.70;;;9.40;;
79204;SDS011;68632;47.512;19.104;2023-07-02T02:29:44;13.30;;;9.60;;
79204;SDS011;68632;47.512;19.104;2023-07-02T02:30:46;14.63;;;9.73;;
79204;SDS011;68632;47.512;19.104;2023-07-02T02:31:49;13.30;;;9.98;;
79204;SDS011;68632;47.512;19.104;2023-07-02T02:32:51;15.52;;;9.45;;
79204;SDS011;68632;47.512;19.104;2023-07-02T02:33:53;12.82;;;9.38;;
79204;SDS011;68632;47.512;19.104;2023-07-02T02:34:55;13.63;;;10.10;;
79204;SDS011;68632;47.512;19.104;2023-07-02T02:35:58;13.35;;;9.65;;
79204;SDS011;68632;47.512;19.104;2023-07-02T02:37:00;14.90;;;9.50;;
79204;SDS011;68632;47.512;19.104;2023-07-02T02:38:02;16.52;;;9.77;;
79204;SDS011;68632;47.512;19.104;2023-07-02T02:39:05;15.55;;;9.07;;
79204;SDS011;68632;47.512;19.104;2023-07-02T02:40:08;13.75;;;9.63;;
79204;SDS011;68632;47.512;19.104;2023-07-02T02:41:13;16.30;;;9.70;;
79204;SDS011;68632;47.512;19.104;2023-07-02T02:42:15;17.02;;;10.15;;
79204;SDS011;68632;47.512;19.104;2023-07-02T02:43:18;13.43;;;9.50;;
79204;SDS011;68632;47.512;19.104;2023-07-02T02:44:20;14.27;;;9.90;;
79204;SDS011;68632;47.512;19.104;2023-07-02T02:45:22;11.38;;;8.55;;
79204;SDS011;68632;47.512;19.104;2023-07-02T02:46:24;16.65;;;9.27;;
79204;SDS011;68632;47.512;19.104;2023-07-02T02:47:26;12.98;;;9.02;;
79204;SDS011;68632;47.512;19.104;2023-07-02T02:48:29;13.88;;;8.55;;
79204;SDS011;68632;47.512;19.104;2023-07-02T02:49:31;13.00;;;9.38;;
79204;SDS011;68632;47.512;19.104;2023-07-02T02:50:33;12.40;;;8.00;;
79204;SDS011;68632;47.512;19.104;2023-07-02T02:51:35;11.15;;;8.45;;
79204;SDS011;68632;47.512;19.104;2023-07-02T02:52:37;12.73;;;7.95;;
79204;SDS011;68632;47.512;19.104;2023-07-02T02:53:40;13.43;;;9.05;;
79204;SDS011;68632;47.512;19.104;2023-07-02T02:54:42;11.30;;;8.50;;
79204;SDS011;68632;47.512;19.104;2023-07-02T02:55:44;12.10;;;7.97;;
79204;SDS011;68632;47.512;19.104;2023-07-02T02:56:46;16.00;;;9.25;;
79204;SDS011;68632;47.512;19.104;2023-07-02T02:57:48;11.32;;;8.05;;
79204;SDS011;68632;47.512;19.104;2023-07-02T02:58:51;14.38;;;8.68;;
79204;SDS011;68632;47.512;19.104;2023-07-02T02:59:53;10.65;;;8.30;;
79204;SDS011;68632;47.512;19.104;2023-07-02T03:00:55;16.13;;;8.95;;
79204;SDS011;68632;47.512;19.104;2023-07-02T03:01:57;13.55;;;8.60;;
79204;SDS011;68632;47.512;19.104;2023-07-02T03:03:00;13.23;;;8.77;;
79204;SDS011;68632;47.512;19.104;2023-07-02T03:04:02;12.30;;;7.75;;
79204;SDS011;68632;47.512;19.104;2023-07-02T03:05:05;10.57;;;7.60;;
79204;SDS011;68632;47.512;19.104;2023-07-02T03:06:08;11.55;;;8.23;;
79204;SDS011;68632;47.512;19.104;2023-07-02T03:07:10;18.20;;;8.27;;
79204;SDS011;68632;47.512;19.104;2023-07-02T03:08:12;13.20;;;8.65;;
79204;SDS011;68632;47.512;19.104;2023-07-02T03:09:14;11.25;;;7.95;;
79204;SDS011;68632;47.512;19.104;2023-07-02T03:10:17;10.82;;;8.15;;
79204;SDS011;68632;47.512;19.104;2023-07-02T03:11:19;12.73;;;8.35;;
79204;SDS011;68632;47.512;19.104;2023-07-02T03:12:21;13.65;;;8.32;;
79204;SDS011;68632;47.512;19.104;2023-07-02T03:13:27;11.65;;;7.93;;
79204;SDS011;68632;47.512;19.104;2023-07-02T03:14:29;10.55;;;7.72;;
79204;SDS011;68632;47.512;19.104;2023-07-02T03:15:31;14.10;;;8.55;;
79204;SDS011;68632;47.512;19.104;2023-07-02T03:16:34;11.18;;;8.25;;
79204;SDS011;68632;47.512;19.104;2023-07-02T03:17:36;9.45;;;7.60;;
79204;SDS011;68632;47.512;19.104;2023-07-02T03:18:38;11.57;;;7.40;;
79204;SDS011;68632;47.512;19.104;2023-07-02T03:19:40;13.98;;;8.02;;
79204;SDS011;68632;47.512;19.104;2023-07-02T03:20:43;10.73;;;7.85;;
79204;SDS011;68632;47.512;19.104;2023-07-02T03:21:45;10.65;;;7.10;;
79204;SDS011;68632;47.512;19.104;2023-07-02T03:22:48;10.52;;;7.65;;
79204;SDS011;68632;47.512;19.104;2023-07-02T03:23:50;14.75;;;7.85;;
79204;SDS011;68632;47.512;19.104;2023-07-02T03:24:52;10.93;;;8.25;;
79204;SDS011;68632;47.512;19.104;2023-07-02T03:25:54;10.10;;;7.78;;
79204;SDS011;68632;47.512;19.104;2023-07-02T03:26:56;12.77;;;8.00;;
79204;SDS011;68632;47.512;19.104;2023-07-02T03:27:58;11.25;;;7.85;;
79204;SDS011;68632;47.512;19.104;2023-07-02T03:29:01;13.65;;;8.60;;
79204;SDS011;68632;47.512;19.104;2023-07-02T03:30:03;13.45;;;8.30;;
79204;SDS011;68632;47.512;19.104;2023-07-02T03:31:06;11.60;;;7.53;;
79204;SDS011;68632;47.512;19.104;2023-07-02T03:32:08;12.73;;;7.68;;
79204;SDS011;68632;47.512;19.104;2023-07-02T03:33:10;10.13;;;7.45;;
79204;SDS011;68632;47.512;19.104;2023-07-02T03:34:13;10.25;;;7.55;;
79204;SDS011;68632;47.512;19.104;2023-07-02T03:35:15;10.80;;;7.38;;
79204;SDS011;68632;47.512;19.104;2023-07-02T03:36:17;9.27;;;6.68;;
79204;SDS011;68632;47.512;19.104;2023-07-02T03:37:19;10.40;;;7.03;;
79204;SDS011;68632;47.512;19.104;2023-07-02T03:38:21;10.10;;;7.28;;
79204;SDS011;68632;47.512;19.104;2023-07-02T03:39:24;9.73;;;6.95;;
79204;SDS011;68632;47.512;19.104;2023-07-02T03:40:26;11.55;;;7.75;;
79204;SDS011;68632;47.512;19.104;2023-07-02T03:41:28;10.38;;;6.75;;
79204;SDS011;68632;47.512;19.104;2023-07-02T03:42:32;9.45;;;7.07;;
79204;SDS011;68632;47.512;19.104;2023-07-02T03:43:34;16.10;;;8.20;;
79204;SDS011;68632;47.512;19.104;2023-07-02T03:44:37;11.38;;;7.63;;
79204;SDS011;68632;47.512;19.104;2023-07-02T03:45:39;15.68;;;7.68;;
79204;SDS011;68632;47.512;19.104;2023-07-02T03:46:41;10.07;;;7.20;;
79204;SDS011;68632;47.512;19.104;2023-07-02T03:47:43;9.70;;;6.95;;
79204;SDS011;68632;47.512;19.104;2023-07-02T03:48:46;10.45;;;7.00;;
79204;SDS011;68632;47.512;19.104;2023-07-02T03:49:48;12.50;;;7.15;;
79204;SDS011;68632;47.512;19.104;2023-07-02T03:50:50;10.40;;;7.45;;
79204;SDS011;68632;47.512;19.104;2023-07-02T03:51:52;12.35;;;7.30;;
79204;SDS011;68632;47.512;19.104;2023-07-02T03:52:54;10.73;;;6.85;;
79204;SDS011;68632;47.512;19.104;2023-07-02T03:53:58;9.70;;;6.93;;
79204;SDS011;68632;47.512;19.104;2023-07-02T03:55:00;12.32;;;7.25;;
79204;SDS011;68632;47.512;19.104;2023-07-02T03:56:02;9.75;;;7.15;;
79204;SDS011;68632;47.512;19.104;2023-07-02T03:57:05;12.90;;;6.95;;
79204;SDS011;68632;47.512;19.104;2023-07-02T03:58:07;9.63;;;7.35;;
79204;SDS011;68632;47.512;19.104;2023-07-02T03:59:09;9.50;;;7.13;;
79204;SDS011;68632;47.512;19.104;2023-07-02T04:00:11;9.10;;;6.97;;
79204;SDS011;68632;47.512;19.104;2023-07-02T04:01:14;10.52;;;6.63;;
79204;SDS011;68632;47.512;19.104;2023-07-02T04:02:17;11.05;;;6.78;;
79204;SDS011;68632;47.512;19.104;2023-07-02T04:03:20;8.70;;;6.63;;
79204;SDS011;68632;47.512;19.104;2023-07-02T04:04:22;12.07;;;6.75;;
79204;SDS011;68632;47.512;19.104;2023-07-02T04:05:24;11.02;;;6.45;;
79204;SDS011;68632;47.512;19.104;2023-07-02T04:06:27;12.38;;;7.38;;
79204;SDS011;68632;47.512;19.104;2023-07-02T04:07:29;10.55;;;6.82;;
79204;SDS011;68632;47.512;19.104;2023-07-02T04:08:32;9.07;;;6.32;;
79204;SDS011;68632;47.512;19.104;2023-07-02T04:09:34;10.00;;;7.18;;
79204;SDS011;68632;47.512;19.104;2023-07-02T04:10:36;9.27;;;7.10;;
79204;SDS011;68632;47.512;19.104;2023-07-02T04:11:38;10.93;;;7.35;;
79204;SDS011;68632;47.512;19.104;2023-07-02T04:12:41;9.93;;;7.03;;
79204;SDS011;68632;47.512;19.104;2023-07-02T04:13:43;8.98;;;7.35;;
79204;SDS011;68632;47.512;19.104;2023-07-02T04:14:45;11.13;;;6.63;;
79204;SDS011;68632;47.512;19.104;2023-07-02T04:15:47;8.82;;;6.30;;
79204;SDS011;68632;47.512;19.104;2023-07-02T04:16:50;13.23;;;7.13;;
79204;SDS011;68632;47.512;19.104;2023-07-02T04:17:52;10.00;;;6.55;;
79204;SDS011;68632;47.512;19.104;2023-07-02T04:18:54;14.40;;;7.57;;
79204;SDS011;68632;47.512;19.104;2023-07-02T04:19:57;13.48;;;7.25;;
79204;SDS011;68632;47.512;19.104;2023-07-02T04:21:02;9.32;;;6.78;;
79204;SDS011;68632;47.512;19.104;2023-07-02T04:22:04;9.77;;;6.70;;
79204;SDS011;68632;47.512;19.104;2023-07-02T04:23:06;10.23;;;7.10;;
79204;SDS011;68632;47.512;19.104;2023-07-02T04:24:09;9.80;;;6.38;;
79204;SDS011;68632;47.512;19.104;2023-07-02T04:25:12;8.05;;;7.07;;
79204;SDS011;68632;47.512;19.104;2023-07-02T04:26:36;10.05;;;6.85;;
79204;SDS011;68632;47.512;19.104;2023-07-02T04:27:58;9.70;;;6.85;;
79204;SDS011;68632;47.512;19.104;2023-07-02T04:29:00;9.38;;;6.63;;
79204;SDS011;68632;47.512;19.104;2023-07-02T04:30:02;9.80;;;6.75;;
79204;SDS011;68632;47.512;19.104;2023-07-02T04:31:05;9.57;;;6.65;;
79204;SDS011;68632;47.512;19.104;2023-07-02T04:32:07;9.93;;;7.10;;
79204;SDS011;68632;47.512;19.104;2023-07-02T04:33:10;10.00;;;6.50;;
79204;SDS011;68632;47.512;19.104;2023-07-02T04:34:16;10.77;;;6.88;;
79204;SDS011;68632;47.512;19.104;2023-07-02T04:35:18;12.50;;;7.18;;
79204;SDS011;68632;47.512;19.104;2023-07-02T04:36:20;9.15;;;7.00;;
79204;SDS011;68632;47.512;19.104;2023-07-02T04:37:22;11.40;;;7.30;;
79204;SDS011;68632;47.512;19.104;2023-07-02T04:38:24;7.78;;;5.90;;
79204;SDS011;68632;47.512;19.104;2023-07-02T04:39:26;9.88;;;7.10;;
79204;SDS011;68632;47.512;19.104;2023-07-02T04:40:29;10.13;;;7.07;;
79204;SDS011;68632;47.512;19.104;2023-07-02T04:41:31;11.43;;;7.22;;
79204;SDS011;68632;47.512;19.104;2023-07-02T04:42:34;8.32;;;6.43;;
79204;SDS011;68632;47.512;19.104;2023-07-02T04:43:36;11.27;;;6.30;;
79204;SDS011;68632;47.512;19.104;2023-07-02T04:44:39;10.23;;;6.85;;
79204;SDS011;68632;47.512;19.104;2023-07-02T04:45:41;11.55;;;6.63;;
79204;SDS011;68632;47.512;19.104;2023-07-02T04:46:48;11.80;;;6.68;;
79204;SDS011;68632;47.512;19.104;2023-07-02T04:47:50;9.52;;;6.70;;
79204;SDS011;68632;47.512;19.104;2023-07-02T04:48:53;8.77;;;6.82;;
79204;SDS011;68632;47.512;19.104;2023-07-02T04:49:55;9.52;;;7.05;;
79204;SDS011;68632;47.512;19.104;2023-07-02T04:50:58;11.70;;;6.82;;
79204;SDS011;68632;47.512;19.104;2023-07-02T04:52:00;9.70;;;6.28;;
79204;SDS011;68632;47.512;19.104;2023-07-02T04:53:02;10.55;;;6.82;;
79204;SDS011;68632;47.512;19.104;2023-07-02T04:54:04;9.55;;;6.05;;
79204;SDS011;68632;47.512;19.104;2023-07-02T04:55:06;11.15;;;7.47;;
79204;SDS011;68632;47.512;19.104;2023-07-02T04:56:09;12.00;;;7.03;;
79204;SDS011;68632;47.512;19.104;2023-07-02T04:57:11;8.73;;;6.10;;
79204;SDS011;68632;47.512;19.104;2023-07-02T04:58:16;8.98;;;6.65;;
79204;SDS011;68632;47.512;19.104;2023-07-02T04:59:20;10.25;;;7.22;;
79204;SDS011;68632;47.512;19.104;2023-07-02T05:01:26;9.02;;;5.80;;
79204;SDS011;68632;47.512;19.104;2023-07-02T05:02:29;8.68;;;6.30;;
79204;SDS011;68632;47.512;19.104;2023-07-02T05:03:32;8.75;;;6.28;;
79204;SDS011;68632;47.512;19.104;2023-07-02T05:04:35;9.50;;;6.35;;
79204;SDS011;68632;47.512;19.104;2023-07-02T05:05:37;9.63;;;6.80;;
79204;SDS011;68632;47.512;19.104;2023-07-02T05:06:39;8.73;;;5.85;;
79204;SDS011;68632;47.512;19.104;2023-07-02T05:07:42;8.85;;;6.47;;
79204;SDS011;68632;47.512;19.104;2023-07-02T05:08:44;9.93;;;5.78;;
79204;SDS011;68632;47.512;19.104;2023-07-02T05:09:46;10.15;;;6.13;;
79204;SDS011;68632;47.512;19.104;2023-07-02T05:10:50;9.95;;;6.00;;
79204;SDS011;68632;47.512;19.104;2023-07-02T05:11:53;8.70;;;6.03;;
79204;SDS011;68632;47.512;19.104;2023-07-02T05:12:55;9.68;;;6.30;;
79204;SDS011;68632;47.512;19.104;2023-07-02T05:13:57;8.18;;;6.18;;
79204;SDS011;68632;47.512;19.104;2023-07-02T05:14:59;10.40;;;6.22;;
79204;SDS011;68632;47.512;19.104;2023-07-02T05:16:01;8.55;;;6.00;;
79204;SDS011;68632;47.512;19.104;2023-07-02T05:17:03;7.10;;;6.00;;
79204;SDS011;68632;47.512;19.104;2023-07-02T05:18:06;8.18;;;5.75;;
79204;SDS011;68632;47.512;19.104;2023-07-02T05:19:08;9.23;;;6.35;;
79204;SDS011;68632;47.512;19.104;2023-07-02T05:20:11;10.38;;;6.22;;
79204;SDS011;68632;47.512;19.104;2023-07-02T05:21:13;10.35;;;5.68;;
79204;SDS011;68632;47.512;19.104;2023-07-02T05:22:19;9.45;;;6.03;;
79204;SDS011;68632;47.512;19.104;2023-07-02T05:23:21;9.70;;;5.35;;
79204;SDS011;68632;47.512;19.104;2023-07-02T05:24:23;8.98;;;5.53;;
79204;SDS011;68632;47.512;19.104;2023-07-02T05:25:25;7.82;;;4.90;;
79204;SDS011;68632;47.512;19.104;2023-07-02T05:26:28;8.95;;;6.32;;
79204;SDS011;68632;47.512;19.104;2023-07-02T05:27:30;7.90;;;6.13;;
79204;SDS011;68632;47.512;19.104;2023-07-02T05:28:32;11.40;;;6.70;;
79204;SDS011;68632;47.512;19.104;2023-07-02T05:29:34;8.93;;;5.22;;
79204;SDS011;68632;47.512;19.104;2023-07-02T05:30:36;8.00;;;5.57;;
79204;SDS011;68632;47.512;19.104;2023-07-02T05:31:39;9.30;;;5.38;;
79204;SDS011;68632;47.512;19.104;2023-07-02T05:32:41;10.25;;;6.18;;
79204;SDS011;68632;47.512;19.104;2023-07-02T05:33:44;8.27;;;6.00;;
79204;SDS011;68632;47.512;19.104;2023-07-02T05:34:46;8.55;;;5.15;;
79204;SDS011;68632;47.512;19.104;2023-07-02T05:35:48;7.97;;;5.38;;
79204;SDS011;68632;47.512;19.104;2023-07-02T05:36:50;7.72;;;5.18;;
79204;SDS011;68632;47.512;19.104;2023-07-02T05:37:53;8.45;;;6.03;;
79204;SDS011;68632;47.512;19.104;2023-07-02T05:38:55;8.75;;;5.93;;
79204;SDS011;68632;47.512;19.104;2023-07-02T05:39:57;7.47;;;5.45;;
79204;SDS011;68632;47.512;19.104;2023-07-02T05:40:59;9.35;;;6.03;;
79204;SDS011;68632;47.512;19.104;2023-07-02T05:42:01;7.97;;;5.30;;
79204;SDS011;68632;47.512;19.104;2023-07-02T05:43:04;9.63;;;6.32;;
79204;SDS011;68632;47.512;19.104;2023-07-02T05:44:06;10.65;;;6.30;;
79204;SDS011;68632;47.512;19.104;2023-07-02T05:45:08;9.07;;;6.28;;
79204;SDS011;68632;47.512;19.104;2023-07-02T05:46:11;9.23;;;6.53;;
79204;SDS011;68632;47.512;19.104;2023-07-02T05:47:14;7.60;;;5.18;;
79204;SDS011;68632;47.512;19.104;2023-07-02T05:48:16;9.45;;;5.78;;
79204;SDS011;68632;47.512;19.104;2023-07-02T05:49:18;8.90;;;5.90;;
79204;SDS011;68632;47.512;19.104;2023-07-02T05:50:20;8.05;;;6.40;;
79204;SDS011;68632;47.512;19.104;2023-07-02T05:51:23;8.77;;;5.65;;
79204;SDS011;68632;47.512;19.104;2023-07-02T05:52:25;8.00;;;5.20;;
79204;SDS011;68632;47.512;19.104;2023-07-02T05:53:27;9.10;;;5.90;;
79204;SDS011;68632;47.512;19.104;2023-07-02T05:54:30;8.60;;;5.88;;
79204;SDS011;68632;47.512;19.104;2023-07-02T05:55:32;9.75;;;6.30;;
79204;SDS011;68632;47.512;19.104;2023-07-02T05:56:34;7.85;;;5.55;;
79204;SDS011;68632;47.512;19.104;2023-07-02T05:57:37;7.72;;;5.65;;
79204;SDS011;68632;47.512;19.104;2023-07-02T05:58:39;9.05;;;6.53;;
79204;SDS011;68632;47.512;19.104;2023-07-02T05:59:49;8.48;;;5.80;;
79204;SDS011;68632;47.512;19.104;2023-07-02T06:00:51;8.68;;;5.82;;
79204;SDS011;68632;47.512;19.104;2023-07-02T06:01:53;10.13;;;5.95;;
79204;SDS011;68632;47.512;19.104;2023-07-02T06:02:55;6.40;;;5.20;;
79204;SDS011;68632;47.512;19.104;2023-07-02T06:03:58;7.38;;;5.55;;
79204;SDS011;68632;47.512;19.104;2023-07-02T06:05:00;8.80;;;5.85;;
79204;SDS011;68632;47.512;19.104;2023-07-02T06:06:03;8.88;;;6.10;;
79204;SDS011;68632;47.512;19.104;2023-07-02T06:07:06;9.30;;;5.88;;
79204;SDS011;68632;47.512;19.104;2023-07-02T06:08:08;8.75;;;5.90;;
79204;SDS011;68632;47.512;19.104;2023-07-02T06:09:10;10.18;;;6.10;;
79204;SDS011;68632;47.512;19.104;2023-07-02T06:10:13;8.23;;;5.78;;
79204;SDS011;68632;47.512;19.104;2023-07-02T06:11:15;9.63;;;6.15;;